Time;durP1;ratioP1;P1;durP2;ratioP2;P2;SDS_P1;SDS_P2;PMS_P1;PMS_P2;Temp;Humidity;BMP_temperature;BMP_pressure;BME280_temperature;BME280_humidity;BME280_pressure;Samples;Min_cycle;Max_cycle;Signal;HPM_P1;HPM_P2
2022/09/23 00:00:45;;;;;;;9.27;6.30;;;9.80;99.90;;;;;;5052389;28;20123;-82
2022/09/23 00:03:10;;;;;;;9.70;7.15;;;9.80;99.90;;;;;;5036576;28;20366;-83
2022/09/23 00:05:37;;;;;;;10.13;7.28;;;9.80;99.90;;;;;;5036456;28;20095;-82
2022/09/23 00:08:07;;;;;;;9.05;7.20;;;9.80;99.90;;;;;;5023579;28;20045;-82
2022/09/23 00:10:36;;;;;;;9.95;7.55;;;9.80;99.90;;;;;;5035762;28;20051;-82
2022/09/23 00:13:03;;;;;;;9.63;6.80;;;9.70;99.90;;;;;;5036454;28;20053;-82
2022/09/23 00:15:30;;;;;;;7.93;6.57;;;9.80;99.90;;;;;;5019087;28;20072;-82
2022/09/23 00:17:56;;;;;;;13.13;11.60;;;9.80;99.90;;;;;;5036197;28;20445;-82
2022/09/23 00:20:22;;;;;;;9.18;7.20;;;9.80;99.90;;;;;;5052796;28;20045;-83
2022/09/23 00:22:47;;;;;;;10.20;6.97;;;9.70;99.90;;;;;;5024569;28;20346;-83
2022/09/23 00:25:13;;;;;;;10.15;8.48;;;9.70;99.90;;;;;;5019285;28;20041;-82
2022/09/23 00:27:40;;;;;;;10.18;6.90;;;9.70;99.90;;;;;;5019410;28;20041;-82
2022/09/23 00:30:08;;;;;;;9.02;7.25;;;9.60;99.90;;;;;;5033872;28;20049;-83
2022/09/23 00:32:36;;;;;;;8.55;6.30;;;9.60;99.90;;;;;;5036134;28;20045;-82
2022/09/23 00:35:02;;;;;;;9.35;7.28;;;9.60;99.90;;;;;;5035594;28;20044;-82
2022/09/23 00:37:29;;;;;;;10.90;9.07;;;9.60;99.90;;;;;;5015871;28;20120;-83
2022/09/23 00:39:55;;;;;;;8.88;6.60;;;9.60;99.90;;;;;;5035619;28;20128;-82
2022/09/23 00:42:22;;;;;;;11.18;8.40;;;9.60;99.90;;;;;;5035657;28;20059;-81
2022/09/23 00:44:56;;;;;;;11.50;9.25;;;9.60;99.90;;;;;;5053622;28;20033;-81
2022/09/23 00:47:43;;;;;;;8.95;6.40;;;9.50;99.90;;;;;;5034229;28;20051;-81
2022/09/23 00:50:09;;;;;;;11.93;9.23;;;9.50;99.90;;;;;;5025836;28;20048;-81
2022/09/23 00:52:35;;;;;;;10.98;8.77;;;9.40;99.90;;;;;;5015110;28;20041;-81
2022/09/23 00:55:07;;;;;;;9.85;6.97;;;9.50;99.90;;;;;;5035451;28;20080;-84
2022/09/23 00:57:35;;;;;;;8.30;6.40;;;9.50;99.90;;;;;;5035589;28;20116;-82
2022/09/23 01:00:03;;;;;;;10.48;8.25;;;9.50;99.90;;;;;;5035734;28;20045;-82
2022/09/23 01:02:28;;;;;;;8.15;6.25;;;9.40;99.90;;;;;;5035260;28;20110;-82
2022/09/23 01:04:54;;;;;;;8.70;6.35;;;9.40;99.90;;;;;;5018967;28;20076;-83
2022/09/23 01:07:20;;;;;;;8.25;5.80;;;9.40;99.90;;;;;;5002217;28;20044;-81
2022/09/23 01:09:47;;;;;;;8.65;6.15;;;9.50;99.90;;;;;;5034654;28;20045;-81
2022/09/23 01:12:21;;;;;;;10.23;6.97;;;9.50;99.90;;;;;;5024609;28;20049;-81
2022/09/23 01:15:09;;;;;;;9.88;7.82;;;9.50;99.90;;;;;;5031517;28;20120;-83
2022/09/23 01:17:40;;;;;;;10.13;6.50;;;9.50;99.90;;;;;;5032308;28;20049;-81
2022/09/23 01:20:25;;;;;;;8.73;6.07;;;9.50;99.90;;;;;;5031062;28;20049;-82
2022/09/23 01:23:08;;;;;;;8.82;5.90;;;9.50;99.90;;;;;;5032224;28;20122;-81
2022/09/23 01:26:08;;;;;;;8.50;5.80;;;9.50;99.90;;;;;;5031069;28;20045;-81
2022/09/23 01:29:01;;;;;;;9.70;6.88;;;9.50;99.90;;;;;;5032811;28;20077;-82
2022/09/23 01:32:02;;;;;;;8.07;6.13;;;9.50;99.90;;;;;;5018468;28;20049;-82
2022/09/23 01:34:41;;;;;;;9.13;6.72;;;9.50;99.90;;;;;;5031310;28;20095;-82
2022/09/23 01:37:17;;;;;;;9.57;7.43;;;9.50;99.90;;;;;;5030875;28;20045;-83
2022/09/23 01:39:53;;;;;;;8.40;5.80;;;9.50;99.90;;;;;;5031987;28;20418;-82
2022/09/23 01:42:55;;;;;;;10.40;7.28;;;9.50;99.90;;;;;;5030999;28;20044;-84
2022/09/23 01:45:29;;;;;;;8.60;6.80;;;9.50;99.90;;;;;;5026607;28;20061;-82
2022/09/23 01:48:04;;;;;;;9.60;7.10;;;9.40;99.90;;;;;;5031837;28;20083;-83
2022/09/23 01:53:38;;;;;;;8.00;5.70;;;9.40;99.90;;;;;;5025769;28;20056;-83
2022/09/23 01:56:22;;;;;;;8.30;5.45;;;9.40;99.90;;;;;;5023127;28;20080;-81
2022/09/23 01:59:08;;;;;;;9.27;5.28;;;9.40;99.90;;;;;;5031681;28;20049;-82
2022/09/23 02:02:00;;;;;;;11.18;8.07;;;9.40;99.90;;;;;;5030925;28;20056;-82
2022/09/23 02:04:44;;;;;;;11.02;8.07;;;9.90;99.90;;;;;;5016593;28;20050;-81
2022/09/23 02:07:34;;;;;;;11.20;9.00;;;9.40;99.90;;;;;;5019959;28;20164;-82
2022/09/23 02:10:15;;;;;;;8.60;5.60;;;9.30;99.90;;;;;;5019183;28;20116;-82
2022/09/23 02:12:45;;;;;;;8.00;5.60;;;9.30;99.90;;;;;;5022833;28;20049;-82
2022/09/23 02:15:19;;;;;;;9.40;6.07;;;9.30;99.90;;;;;;5029967;28;20045;-81
2022/09/23 02:17:51;;;;;;;10.70;8.82;;;9.30;99.90;;;;;;5032626;28;20045;-81
2022/09/23 02:20:23;;;;;;;11.50;9.18;;;9.30;99.90;;;;;;5030929;28;20045;-81
2022/09/23 02:23:21;;;;;;;12.18;8.45;;;9.30;99.90;;;;;;5022356;28;20053;-82
2022/09/23 02:25:57;;;;;;;11.52;7.60;;;9.20;99.90;;;;;;5003881;28;20096;-81
2022/09/23 02:28:40;;;;;;;10.60;9.00;;;9.20;99.90;;;;;;5018011;28;20433;-82
2022/09/23 02:31:31;;;;;;;10.10;7.80;;;9.20;99.90;;;;;;5042960;28;20045;-81
2022/09/23 02:34:30;;;;;;;12.48;9.68;;;9.20;99.90;;;;;;5031073;28;20547;-82
2022/09/23 02:37:09;;;;;;;8.50;6.38;;;9.20;99.90;;;;;;5013002;28;20065;-81
2022/09/23 02:39:50;;;;;;;10.65;7.78;;;9.70;99.90;;;;;;5032328;28;20071;-82
2022/09/23 02:42:22;;;;;;;12.38;8.85;;;9.40;99.90;;;;;;5029250;28;20046;-79
2022/09/23 02:44:48;;;;;;;11.37;9.73;;;9.10;99.90;;;;;;5048240;28;20060;-81
2022/09/23 02:47:15;;;;;;;11.45;8.98;;;9.10;99.90;;;;;;5029951;28;20045;-81
2022/09/23 02:49:41;;;;;;;11.25;9.52;;;9.10;99.90;;;;;;4999621;28;20052;-82
2022/09/23 02:52:07;;;;;;;8.88;6.50;;;9.10;99.90;;;;;;5034389;28;20045;-80
2022/09/23 02:54:33;;;;;;;12.48;8.63;;;9.00;99.90;;;;;;4998690;28;20065;-82
2022/09/23 02:57:05;;;;;;;9.55;6.90;;;9.00;99.90;;;;;;5026899;28;20362;-81
2022/09/23 02:59:32;;;;;;;8.70;6.85;;;9.00;99.90;;;;;;5034572;28;20045;-81
2022/09/23 03:02:19;;;;;;;8.13;5.70;;;9.10;99.90;;;;;;5033327;28;20377;-82
2022/09/23 03:05:06;;;;;;;11.32;10.05;;;9.00;99.90;;;;;;5014129;28;20063;-81
2022/09/23 03:07:52;;;;;;;12.52;10.07;;;9.00;99.90;;;;;;5029281;28;20491;-82
2022/09/23 03:10:24;;;;;;;10.38;8.60;;;9.00;99.90;;;;;;5000338;28;20081;-82
2022/09/23 03:13:05;;;;;;;11.25;9.27;;;8.90;99.90;;;;;;5029102;28;20053;-81
2022/09/23 03:15:42;;;;;;;7.53;5.90;;;8.80;99.90;;;;;;5016873;28;20053;-81
2022/09/23 03:18:16;;;;;;;8.57;6.30;;;8.80;99.90;;;;;;5034099;28;20065;-81
2022/09/23 03:20:55;;;;;;;9.50;6.97;;;8.80;99.90;;;;;;5054527;28;20053;-81
2022/09/23 03:23:30;;;;;;;9.60;7.85;;;9.00;99.90;;;;;;5019172;28;20069;-81
2022/09/23 03:25:58;;;;;;;8.50;6.57;;;8.80;99.90;;;;;;5028387;28;20063;-82
2022/09/23 03:28:25;;;;;;;7.55;5.90;;;8.80;99.90;;;;;;5037184;28;20504;-81
2022/09/23 03:30:53;;;;;;;9.23;7.13;;;8.80;99.90;;;;;;5053795;28;20037;-82
2022/09/23 03:33:23;;;;;;;8.95;6.40;;;8.80;99.90;;;;;;5035128;28;20385;-82
2022/09/23 03:38:44;;;;;;;10.85;8.93;;;8.80;99.90;;;;;;5034823;28;20087;-81
2022/09/23 03:41:18;;;;;;;10.60;9.48;;;8.70;99.90;;;;;;5033075;28;20041;-79
2022/09/23 03:43:44;;;;;;;12.77;10.32;;;8.70;99.90;;;;;;5050214;28;20050;-79
2022/09/23 03:46:11;;;;;;;12.85;9.82;;;8.80;99.90;;;;;;5036419;28;20044;-79
2022/09/23 03:48:37;;;;;;;13.57;10.85;;;8.80;99.90;;;;;;5036774;28;20084;-82
2022/09/23 03:51:18;;;;;;;13.10;9.75;;;8.80;99.90;;;;;;5019972;28;20068;-82
2022/09/23 03:53:44;;;;;;;12.45;10.30;;;8.80;99.90;;;;;;5037101;28;20416;-78
2022/09/23 03:56:10;;;;;;;12.45;9.55;;;9.00;99.90;;;;;;5036563;28;20037;-78
2022/09/23 03:58:36;;;;;;;12.88;9.77;;;8.80;99.90;;;;;;5016995;28;20110;-80
2022/09/23 04:01:02;;;;;;;13.98;10.00;;;8.80;99.90;;;;;;5031347;28;20037;-78
2022/09/23 04:03:28;;;;;;;12.02;9.52;;;8.80;99.90;;;;;;5025090;28;20041;-79
2022/09/23 04:05:54;;;;;;;11.00;9.45;;;8.80;99.90;;;;;;5053937;28;20049;-80
2022/09/23 04:08:20;;;;;;;12.48;10.27;;;8.70;99.90;;;;;;5023139;28;20412;-79
2022/09/23 04:10:46;;;;;;;13.45;10.70;;;8.70;99.90;;;;;;5054145;28;20044;-77
2022/09/23 04:13:11;;;;;;;13.55;10.57;;;8.80;99.90;;;;;;5054211;28;20460;-77
2022/09/23 04:15:39;;;;;;;13.38;10.45;;;8.80;99.90;;;;;;5052758;28;20098;-78
2022/09/23 04:18:04;;;;;;;14.05;10.80;;;8.70;99.90;;;;;;5035963;28;20075;-78
2022/09/23 04:20:30;;;;;;;14.45;10.02;;;8.80;99.90;;;;;;5036473;28;20052;-77
2022/09/23 04:22:55;;;;;;;12.35;10.07;;;8.70;99.90;;;;;;5036558;28;20354;-79
2022/09/23 04:25:21;;;;;;;12.63;10.77;;;8.60;99.90;;;;;;5035989;28;20032;-79
2022/09/23 04:27:47;;;;;;;13.73;10.02;;;8.60;99.90;;;;;;5016168;28;20067;-79
2022/09/23 04:30:13;;;;;;;13.13;10.20;;;8.60;99.90;;;;;;5047039;28;20068;-80
2022/09/23 04:32:39;;;;;;;11.95;10.15;;;8.60;99.90;;;;;;5036121;28;20417;-79
2022/09/23 04:35:05;;;;;;;12.38;11.02;;;8.60;99.90;;;;;;5035281;28;20048;-79
2022/09/23 04:37:31;;;;;;;13.82;10.55;;;8.60;99.90;;;;;;5036175;28;20116;-81
2022/09/23 04:39:57;;;;;;;13.32;10.25;;;8.60;99.90;;;;;;5053749;28;20123;-82
2022/09/23 04:42:23;;;;;;;13.95;10.90;;;8.50;99.90;;;;;;5052919;28;20041;-79
2022/09/23 04:44:48;;;;;;;15.00;11.43;;;8.50;99.90;;;;;;5053642;28;20092;-81
2022/09/23 04:47:14;;;;;;;12.50;11.07;;;8.50;99.90;;;;;;5034954;28;20488;-79
2022/09/23 04:49:40;;;;;;;12.35;10.38;;;8.50;99.90;;;;;;5035859;28;20057;-79
2022/09/23 04:52:06;;;;;;;12.75;11.00;;;8.60;99.90;;;;;;5035260;28;20064;-79
2022/09/23 04:54:32;;;;;;;15.15;11.60;;;8.60;99.90;;;;;;5029339;28;20041;-76
2022/09/23 04:56:58;;;;;;;13.00;11.25;;;8.50;99.90;;;;;;5011806;28;20048;-77
2022/09/23 04:59:23;;;;;;;12.40;10.55;;;8.50;99.90;;;;;;5035392;28;20090;-82
2022/09/23 05:01:50;;;;;;;13.00;10.27;;;8.50;99.90;;;;;;5009709;28;20037;-82
2022/09/23 05:04:16;;;;;;;14.10;10.73;;;8.40;99.90;;;;;;5049403;28;20041;-80
2022/09/23 05:06:45;;;;;;;12.02;10.10;;;8.40;99.90;;;;;;5034684;28;20477;-80
2022/09/23 05:09:15;;;;;;;12.50;10.35;;;8.40;99.90;;;;;;5051396;28;20124;-80
2022/09/23 05:11:41;;;;;;;12.93;9.80;;;8.40;99.90;;;;;;5034790;28;20445;-81
2022/09/23 05:14:07;;;;;;;13.18;9.07;;;8.40;99.90;;;;;;5052398;28;20084;-81
2022/09/23 05:16:32;;;;;;;12.95;10.27;;;8.50;99.90;;;;;;5017825;28;20064;-80
2022/09/23 05:18:58;;;;;;;12.35;9.27;;;8.40;99.90;;;;;;5034396;28;20128;-80
2022/09/23 05:21:29;;;;;;;12.45;9.50;;;8.40;99.90;;;;;;5030570;28;20040;-84
2022/09/23 05:23:57;;;;;;;13.80;11.57;;;8.40;99.90;;;;;;5035214;28;20103;-82
2022/09/23 05:26:25;;;;;;;10.75;8.85;;;8.40;99.90;;;;;;5034578;28;20048;-81
2022/09/23 05:28:52;;;;;;;13.15;9.90;;;8.40;99.90;;;;;;5034979;28;20211;-80
2022/09/23 05:31:20;;;;;;;9.70;8.27;;;8.40;99.90;;;;;;5031046;28;20385;-80
2022/09/23 05:34:05;;;;;;;13.63;11.05;;;8.40;99.90;;;;;;5017656;28;20045;-81
2022/09/23 05:36:34;;;;;;;10.82;8.25;;;8.50;99.90;;;;;;5034621;28;20044;-81
2022/09/23 05:39:00;;;;;;;11.85;9.80;;;8.50;99.90;;;;;;5052696;28;20465;-80
2022/09/23 05:41:26;;;;;;;12.25;9.05;;;8.50;99.90;;;;;;5052641;28;20040;-80
2022/09/23 05:43:53;;;;;;;14.20;11.20;;;8.50;99.90;;;;;;5052688;28;20036;-80
2022/09/23 05:46:22;;;;;;;13.52;11.10;;;8.50;99.90;;;;;;5033815;28;20052;-80
2022/09/23 05:48:48;;;;;;;12.43;11.13;;;8.50;99.90;;;;;;5033397;28;20132;-79
2022/09/23 05:51:19;;;;;;;13.80;11.60;;;8.50;99.90;;;;;;5034858;28;20341;-80
2022/09/23 05:53:45;;;;;;;12.50;11.20;;;8.50;99.90;;;;;;5015341;28;20045;-81
2022/09/23 05:56:16;;;;;;;13.98;11.05;;;8.50;99.90;;;;;;5030382;28;20090;-79
2022/09/23 05:58:43;;;;;;;13.05;11.65;;;8.50;99.90;;;;;;5015336;28;20051;-78
2022/09/23 06:01:19;;;;;;;15.45;11.38;;;8.50;99.90;;;;;;5013489;28;20037;-77
2022/09/23 06:03:47;;;;;;;13.43;11.55;;;8.70;99.90;;;;;;5025216;28;20049;-79
2022/09/23 06:06:14;;;;;;;12.95;11.30;;;8.70;99.90;;;;;;5034092;28;20045;-78
2022/09/23 06:08:41;;;;;;;15.65;11.63;;;8.70;99.90;;;;;;5034275;28;20053;-79
2022/09/23 06:11:07;;;;;;;13.38;11.80;;;8.70;99.90;;;;;;5017891;28;20053;-80
2022/09/23 06:13:37;;;;;;;14.88;11.80;;;8.70;99.90;;;;;;5031209;28;20436;-78
2022/09/23 06:16:11;;;;;;;14.68;12.30;;;8.70;99.90;;;;;;5014441;28;20457;-77
2022/09/23 06:18:39;;;;;;;14.32;11.93;;;8.80;99.90;;;;;;5019719;28;20064;-78
2022/09/23 06:21:05;;;;;;;16.30;13.30;;;8.80;99.90;;;;;;5032677;28;20053;-79
2022/09/23 06:23:31;;;;;;;16.67;14.25;;;8.80;99.90;;;;;;5025904;28;20381;-81
2022/09/23 06:26:02;;;;;;;15.95;14.25;;;8.90;99.90;;;;;;5009882;28;20061;-80
2022/09/23 06:28:31;;;;;;;14.30;12.80;;;9.00;99.90;;;;;;5033497;28;20049;-80
2022/09/23 06:31:01;;;;;;;17.42;14.60;;;9.20;99.90;;;;;;5050904;28;20049;-81
2022/09/23 06:33:28;;;;;;;14.63;13.05;;;9.50;99.90;;;;;;5019205;28;20083;-80
2022/09/23 06:35:58;;;;;;;14.55;12.82;;;9.90;99.90;;;;;;5034643;28;20041;-81
2022/09/23 06:38:24;;;;;;;13.57;11.93;;;10.30;99.90;;;;;;5034659;28;20045;-81
2022/09/23 06:40:54;;;;;;;14.25;12.00;;;10.50;99.90;;;;;;5034623;28;20041;-79
2022/09/23 06:43:21;;;;;;;13.63;10.90;;;11.00;99.90;;;;;;5031512;28;20121;-81
2022/09/23 06:45:55;;;;;;;13.30;10.52;;;11.00;99.90;;;;;;5033755;28;20116;-80
2022/09/23 06:48:22;;;;;;;15.23;11.27;;;11.20;99.90;;;;;;5023477;28;20046;-78
2022/09/23 06:50:48;;;;;;;13.57;10.93;;;11.20;99.90;;;;;;5033886;28;20522;-79
2022/09/23 06:53:15;;;;;;;14.25;10.75;;;11.30;99.90;;;;;;5035837;28;20042;-81
2022/09/23 06:55:40;;;;;;;14.65;10.35;;;11.40;99.90;;;;;;5032814;28;20120;-81
2022/09/23 06:58:07;;;;;;;14.15;10.20;;;11.60;99.90;;;;;;5003734;28;20030;-80
2022/09/23 07:00:34;;;;;;;11.10;9.13;;;11.80;99.90;;;;;;5014365;28;20049;-81
2022/09/23 07:03:00;;;;;;;11.55;10.13;;;11.70;99.90;;;;;;5017123;28;20045;-82
2022/09/23 07:05:25;;;;;;;13.73;10.32;;;11.80;99.90;;;;;;5017991;28;20530;-82
2022/09/23 07:07:52;;;;;;;14.15;10.48;;;11.80;99.90;;;;;;5017430;28;20042;-85
2022/09/23 07:10:18;;;;;;;13.52;10.45;;;11.70;99.90;;;;;;4996079;28;20041;-81
2022/09/23 07:12:43;;;;;;;13.95;10.45;;;11.70;99.90;;;;;;5026065;28;20058;-81
2022/09/23 07:15:10;;;;;;;13.10;10.40;;;11.60;99.90;;;;;;5038119;28;20111;-81
2022/09/23 07:17:35;;;;;;;13.20;10.63;;;11.60;99.90;;;;;;5037474;28;20531;-81
2022/09/23 07:20:02;;;;;;;12.70;11.00;;;11.60;99.90;;;;;;5032264;28;20049;-83
2022/09/23 07:22:28;;;;;;;13.85;10.32;;;11.70;99.90;;;;;;5036744;28;20048;-81
2022/09/23 07:24:56;;;;;;;13.23;10.20;;;11.70;99.90;;;;;;5054867;28;20040;-81
2022/09/23 07:27:24;;;;;;;14.23;10.63;;;11.70;99.90;;;;;;5020899;28;20037;-81
2022/09/23 07:29:50;;;;;;;13.50;9.73;;;11.70;99.90;;;;;;5033157;28;20045;-82
2022/09/23 07:32:17;;;;;;;13.18;10.13;;;11.80;99.90;;;;;;5040232;28;20064;-82
2022/09/23 07:34:45;;;;;;;13.48;10.35;;;11.80;99.90;;;;;;5033021;28;20073;-85
2022/09/23 07:37:12;;;;;;;12.23;10.13;;;11.90;99.90;;;;;;5032344;28;20120;-81
2022/09/23 07:39:38;;;;;;;12.77;10.20;;;11.80;99.90;;;;;;5035371;28;20128;-81
2022/09/23 07:42:05;;;;;;;13.45;10.38;;;11.90;99.90;;;;;;5027571;28;20491;-83
2022/09/23 07:44:31;;;;;;;12.57;10.05;;;12.00;99.90;;;;;;5021444;28;20045;-80
2022/09/23 07:46:57;;;;;;;13.65;10.23;;;12.00;99.90;;;;;;5012995;28;20076;-81
2022/09/23 07:49:23;;;;;;;16.27;9.90;;;12.10;99.90;;;;;;5032863;28;20041;-81
2022/09/23 07:51:49;;;;;;;12.98;9.70;;;12.10;99.90;;;;;;5019985;28;20477;-81
2022/09/23 07:54:17;;;;;;;14.18;10.05;;;12.20;99.90;;;;;;5033400;28;20045;-82
2022/09/23 07:56:43;;;;;;;15.35;11.15;;;12.20;99.90;;;;;;5016580;28;20052;-81
2022/09/23 07:59:14;;;;;;;13.18;10.57;;;12.30;99.90;;;;;;5022528;28;20397;-81
2022/09/23 08:01:49;;;;;;;14.65;9.57;;;12.30;99.90;;;;;;5014680;28;20045;-81
2022/09/23 08:04:24;;;;;;;13.48;10.02;;;12.40;99.90;;;;;;5019247;28;20080;-81
2022/09/23 08:06:53;;;;;;;13.52;10.95;;;12.50;99.90;;;;;;5035874;28;20048;-81
2022/09/23 08:09:21;;;;;;;13.25;9.70;;;12.60;99.90;;;;;;5035724;28;20056;-82
2022/09/23 08:11:48;;;;;;;15.68;10.15;;;12.60;99.90;;;;;;5040891;28;20044;-81
2022/09/23 08:14:16;;;;;;;13.77;9.98;;;12.80;99.90;;;;;;5053168;28;20171;-82
2022/09/23 08:16:44;;;;;;;13.70;10.15;;;12.90;99.90;;;;;;5034797;28;20045;-81
2022/09/23 08:19:10;;;;;;;14.05;9.68;;;13.00;99.90;;;;;;5053656;28;20059;-80
2022/09/23 08:21:38;;;;;;;11.55;9.10;;;13.10;99.90;;;;;;5052491;28;20399;-80
2022/09/23 08:24:11;;;;;;;12.18;9.95;;;13.10;99.90;;;;;;5036291;28;20053;-80
2022/09/23 08:26:37;;;;;;;12.38;9.00;;;13.20;99.90;;;;;;5052361;28;20060;-80
2022/09/23 08:29:04;;;;;;;12.40;9.30;;;13.30;99.90;;;;;;5019706;28;20385;-79
2022/09/23 08:31:30;;;;;;;11.57;8.90;;;13.40;99.90;;;;;;5034491;28;20045;-82
2022/09/23 08:33:57;;;;;;;12.48;9.20;;;13.40;99.90;;;;;;5029561;28;20072;-80
2022/09/23 08:36:24;;;;;;;11.18;8.45;;;13.40;99.90;;;;;;5048350;28;20123;-79
2022/09/23 08:38:50;;;;;;;14.40;9.25;;;13.40;99.90;;;;;;5035419;28;20116;-81
2022/09/23 08:41:28;;;;;;;12.00;9.05;;;13.50;99.90;;;;;;5053468;28;20120;-80
2022/09/23 08:43:58;;;;;;;13.02;8.95;;;13.50;99.90;;;;;;5035829;28;20532;-81
2022/09/23 08:46:34;;;;;;;11.85;8.25;;;13.70;99.90;;;;;;5034870;28;20072;-80
2022/09/23 08:49:00;;;;;;;12.45;8.65;;;13.70;99.90;;;;;;5052458;28;20068;-82
2022/09/23 08:51:45;;;;;;;11.57;7.88;;;13.80;99.90;;;;;;5053455;28;20044;-78
2022/09/23 08:54:12;;;;;;;12.05;8.55;;;13.80;99.90;;;;;;5032231;28;20049;-80
2022/09/23 08:56:38;;;;;;;11.13;8.90;;;13.80;99.90;;;;;;5025442;28;20056;-79
2022/09/23 08:59:28;;;;;;;11.18;8.55;;;13.80;99.90;;;;;;5021817;28;20432;-82
2022/09/23 09:02:10;;;;;;;10.80;8.10;;;13.90;99.90;;;;;;5022580;28;20477;-81
2022/09/23 09:04:35;;;;;;;10.88;8.27;;;14.00;99.90;;;;;;5035134;28;20045;-81
2022/09/23 09:07:08;;;;;;;10.75;8.02;;;14.10;99.90;;;;;;5035385;28;20119;-82
2022/09/23 09:10:08;;;;;;;12.18;8.80;;;14.20;99.90;;;;;;5035236;28;20048;-81
2022/09/23 09:12:52;;;;;;;12.40;8.80;;;14.30;99.90;;;;;;5044619;28;20094;-81
2022/09/23 09:15:26;;;;;;;12.75;8.60;;;14.40;99.90;;;;;;5030712;28;20041;-81
2022/09/23 09:18:01;;;;;;;12.88;9.18;;;14.60;99.90;;;;;;5029060;28;20052;-81
2022/09/23 09:20:58;;;;;;;11.98;9.00;;;14.80;99.90;;;;;;5028285;28;20080;-81
2022/09/23 09:23:46;;;;;;;10.30;7.82;;;15.00;99.90;;;;;;5035232;28;20082;-81
2022/09/23 09:26:25;;;;;;;12.65;8.73;;;15.20;99.90;;;;;;5021843;28;20487;-80
2022/09/23 09:29:01;;;;;;;10.50;7.85;;;15.40;99.90;;;;;;5002664;28;20052;-81
2022/09/23 09:31:32;;;;;;;12.90;7.90;;;15.70;99.90;;;;;;5011808;28;20053;-80
2022/09/23 09:34:10;;;;;;;10.75;7.95;;;15.90;99.90;;;;;;5051784;28;20105;-80
2022/09/23 09:36:54;;;;;;;11.82;7.53;;;15.90;99.90;;;;;;5035082;28;20049;-80
2022/09/23 09:39:20;;;;;;;9.20;7.30;;;15.90;99.90;;;;;;5052665;28;20045;-80
2022/09/23 09:41:49;;;;;;;10.38;7.30;;;15.80;99.90;;;;;;5052612;28;20431;-81
2022/09/23 09:44:34;;;;;;;10.15;7.10;;;15.80;99.90;;;;;;5034847;28;20051;-81
2022/09/23 09:47:25;;;;;;;11.77;7.57;;;15.80;99.90;;;;;;5015927;28;20045;-80
2022/09/23 09:49:58;;;;;;;12.50;7.43;;;15.90;99.90;;;;;;5050494;28;20090;-80
2022/09/23 09:52:28;;;;;;;10.80;6.95;;;15.90;99.90;;;;;;5050179;28;20075;-81
2022/09/23 09:55:13;;;;;;;10.80;7.22;;;16.10;99.90;;;;;;5034807;28;20389;-77
2022/09/23 09:57:45;;;;;;;10.15;7.38;;;16.20;99.90;;;;;;5027714;28;20045;-79
2022/09/23 10:00:24;;;;;;;10.70;7.00;;;16.20;99.90;;;;;;5018821;28;20059;-78
2022/09/23 10:02:55;;;;;;;13.00;7.32;;;16.30;99.90;;;;;;5040853;28;20064;-78
2022/09/23 10:05:45;;;;;;;9.40;6.88;;;16.40;99.90;;;;;;5035190;28;20255;-78
2022/09/23 10:08:21;;;;;;;12.07;6.90;;;16.60;99.90;;;;;;5015776;28;20041;-79
2022/09/23 10:11:00;;;;;;;9.48;7.20;;;16.60;99.90;;;;;;5041075;28;20067;-74
2022/09/23 10:13:29;;;;;;;10.07;7.10;;;16.70;99.90;;;;;;5038470;28;20095;-77
2022/09/23 10:15:57;;;;;;;10.13;6.88;;;16.70;99.90;;;;;;5029421;28;20042;-78
2022/09/23 10:18:28;;;;;;;10.23;6.80;;;16.80;99.90;;;;;;5034542;28;20041;-78
2022/09/23 10:21:13;;;;;;;10.48;6.47;;;17.10;99.90;;;;;;5022990;28;20099;-79
2022/09/23 10:23:51;;;;;;;11.02;7.03;;;17.20;99.90;;;;;;5034037;28;20045;-78
2022/09/23 10:26:25;;;;;;;9.45;6.88;;;17.30;99.90;;;;;;5033428;28;20538;-78
2022/09/23 10:28:54;;;;;;;9.43;6.90;;;17.40;99.90;;;;;;5037438;28;20384;-78
2022/09/23 10:31:34;;;;;;;9.13;6.82;;;17.40;99.90;;;;;;5044286;28;20377;-79
2022/09/23 10:34:03;;;;;;;9.70;6.45;;;17.40;99.90;;;;;;5037841;28;20051;-77
2022/09/23 10:36:31;;;;;;;10.80;7.00;;;17.40;99.90;;;;;;5037153;28;20116;-77
2022/09/23 10:48:28;;;;;;;9.43;6.93;;;17.20;99.90;;;;;;5046503;28;20155;-78
2022/09/23 10:50:55;;;;;;;9.45;6.88;;;17.20;99.90;;;;;;5030481;28;20049;-78
2022/09/23 10:53:42;;;;;;;10.55;7.40;;;17.10;99.90;;;;;;5040890;28;20612;-79
2022/09/23 10:56:17;;;;;;;11.70;6.70;;;17.10;99.90;;;;;;5024066;28;20044;-77
2022/09/23 10:58:54;;;;;;;11.05;7.55;;;17.10;99.90;;;;;;5043342;28;20515;-78
2022/09/23 11:01:42;;;;;;;9.93;7.63;;;17.00;99.90;;;;;;5040255;28;20139;-78
2022/09/23 11:04:29;;;;;;;9.90;7.43;;;16.90;99.90;;;;;;5041863;28;20076;-77
2022/09/23 11:07:19;;;;;;;10.68;7.60;;;16.90;99.90;;;;;;5041973;28;20102;-77
2022/09/23 11:09:50;;;;;;;11.27;7.60;;;16.90;99.90;;;;;;5042587;28;20116;-77
2022/09/23 11:12:43;;;;;;;10.87;7.63;;;16.90;99.90;;;;;;5043570;28;20063;-78
2022/09/23 11:15:28;;;;;;;10.45;7.22;;;16.90;99.90;;;;;;5033092;28;20401;-78
2022/09/23 11:18:09;;;;;;;12.07;7.88;;;16.90;99.90;;;;;;5050693;28;20045;-77
2022/09/23 11:21:01;;;;;;;9.98;7.22;;;16.90;99.90;;;;;;5053190;28;20260;-77
2022/09/23 11:23:53;;;;;;;10.00;7.50;;;16.80;99.90;;;;;;5035657;28;20045;-78
2022/09/23 11:26:37;;;;;;;11.85;8.27;;;16.80;99.90;;;;;;5045703;28;20056;-80
2022/09/23 11:29:29;;;;;;;11.23;7.70;;;16.80;99.90;;;;;;5024430;28;20096;-80
2022/09/23 11:32:06;;;;;;;10.35;7.15;;;16.80;99.90;;;;;;5040722;28;20122;-77
2022/09/23 11:35:12;;;;;;;11.88;8.30;;;16.80;99.90;;;;;;5030806;28;20051;-78
2022/09/23 11:37:43;;;;;;;12.13;7.60;;;16.80;99.90;;;;;;5030346;28;20052;-79
2022/09/23 11:40:30;;;;;;;11.23;7.87;;;16.80;99.90;;;;;;5033272;28;20049;-77
2022/09/23 11:43:03;;;;;;;11.32;7.75;;;16.80;99.90;;;;;;5034539;28;20298;-77
2022/09/23 11:45:40;;;;;;;10.75;7.78;;;16.80;99.90;;;;;;5027100;28;20041;-78
2022/09/23 11:48:15;;;;;;;12.10;8.02;;;16.80;99.90;;;;;;5053648;28;20063;-77
2022/09/23 11:50:59;;;;;;;11.13;7.88;;;16.90;99.90;;;;;;5015921;28;20037;-78
2022/09/23 11:53:38;;;;;;;11.27;8.00;;;16.80;99.90;;;;;;5034542;28;20044;-78
2022/09/23 11:56:32;;;;;;;10.43;7.97;;;16.90;99.90;;;;;;5034329;28;20045;-78
2022/09/23 11:59:14;;;;;;;12.15;7.68;;;16.90;99.90;;;;;;5003544;28;20061;-77
2022/09/23 12:01:55;;;;;;;10.43;7.72;;;16.90;99.90;;;;;;5036062;28;20048;-80
2022/09/23 12:04:34;;;;;;;10.18;7.93;;;16.90;99.90;;;;;;5034593;28;20120;-80
2022/09/23 12:07:15;;;;;;;11.80;7.97;;;16.90;99.90;;;;;;5030491;28;20041;-78
2022/09/23 12:10:02;;;;;;;11.65;7.70;;;16.90;99.90;;;;;;5035268;28;20045;-78
2022/09/23 12:12:51;;;;;;;12.82;7.60;;;16.90;99.90;;;;;;5040597;28;20116;-78
2022/09/23 12:15:24;;;;;;;11.82;7.85;;;16.90;99.90;;;;;;5031506;28;20550;-82
2022/09/23 12:18:20;;;;;;;10.30;7.45;;;17.00;99.90;;;;;;5034057;28;20123;-78
2022/09/23 12:21:00;;;;;;;10.55;7.95;;;17.00;99.90;;;;;;5031089;28;20476;-78
2022/09/23 12:23:55;;;;;;;10.57;7.10;;;17.10;99.90;;;;;;5049511;28;20048;-78
2022/09/23 12:26:24;;;;;;;9.75;7.13;;;17.10;99.90;;;;;;5022669;28;20402;-79
2022/09/23 12:28:52;;;;;;;9.50;7.57;;;17.10;99.90;;;;;;5033950;28;20076;-79
2022/09/23 12:31:29;;;;;;;11.27;7.93;;;17.10;99.90;;;;;;5050432;28;20044;-78
2022/09/23 12:34:00;;;;;;;11.30;7.85;;;17.20;99.90;;;;;;5032368;28;20124;-77
2022/09/23 12:36:34;;;;;;;11.52;8.13;;;17.20;99.90;;;;;;5032414;28;20385;-78
2022/09/23 12:39:16;;;;;;;11.73;7.93;;;17.20;99.90;;;;;;5033549;28;20357;-78
2022/09/23 12:41:45;;;;;;;9.90;7.47;;;17.20;99.90;;;;;;5033418;28;20053;-78
2022/09/23 12:44:13;;;;;;;11.70;7.78;;;17.20;99.90;;;;;;5034227;28;20049;-77
2022/09/23 12:46:41;;;;;;;12.13;7.97;;;17.20;99.90;;;;;;5050156;28;20048;-78
2022/09/23 12:49:34;;;;;;;11.90;8.13;;;17.10;99.90;;;;;;5016253;28;20049;-78
2022/09/23 12:52:15;;;;;;;10.38;7.63;;;17.10;99.90;;;;;;5032864;28;20045;-78
2022/09/23 12:54:49;;;;;;;12.57;8.55;;;17.10;99.90;;;;;;5033692;28;20084;-78
2022/09/23 12:57:32;;;;;;;12.68;7.80;;;17.10;99.90;;;;;;5030184;28;20041;-81
2022/09/23 13:00:11;;;;;;;10.57;7.72;;;17.10;99.90;;;;;;5031153;28;20044;-78
2022/09/23 13:08:37;;;;;;;11.70;8.00;;;17.10;99.90;;;;;;5048741;28;20061;-80
2022/09/23 13:11:07;;;;;;;10.88;7.93;;;17.10;99.90;;;;;;5049106;28;20053;-78
2022/09/23 13:13:35;;;;;;;11.43;8.30;;;17.10;99.90;;;;;;5031509;28;20675;-78
2022/09/23 13:16:19;;;;;;;11.23;8.20;;;17.10;99.90;;;;;;5029959;28;20044;-78
2022/09/23 13:18:56;;;;;;;11.02;7.57;;;17.20;99.90;;;;;;5013611;28;20043;-81
2022/09/23 13:21:41;;;;;;;10.98;8.32;;;17.20;99.90;;;;;;5014353;28;20053;-78
2022/09/23 13:24:13;;;;;;;10.52;7.43;;;17.20;99.90;;;;;;5051950;28;20068;-78
2022/09/23 13:26:47;;;;;;;11.10;7.47;;;17.20;99.90;;;;;;5032770;28;20053;-77
2022/09/23 13:29:26;;;;;;;12.40;7.10;;;17.30;99.90;;;;;;5050526;28;20045;-79
2022/09/23 13:31:56;;;;;;;10.85;7.30;;;17.40;99.90;;;;;;5029165;28;20132;-78